Portada
METAR-TAF:

METAR-TAF

Aeroports :

Funafuti, Tuvalu

latitud: 08-31S, longitud: 179-13E, altitud: 1 m

Observació

L'informe es va fer fa 43 minuts, a les 08:00 UTC
Vent 4 kt del Sud-Est
Temperatura 29°C
Humitat 89%
Pressió 1010 hPa
Visibilitat 10 km o més
Escasses núvols a una alçada de 1800 ft, Cumulus congestus.
Núvols disperses a una alçada de 2000 ft

METAR: NGFU 120800Z 13004KT 9999 FEW018TCU SCT020 29/27 Q1010

Hora: 20:43 (08:43 UTC)

Pronòstic

L'informe es va fer fa 4 hores i 4 minuts, a les 04:39 UTC
Pronòstic vàlid del 12 a les 06 UTC al 13 a les 06 UTC
Vent 7 kt del Est/Sud-Est
Visibilitat 10 km o més
Núvols disperses a una alçada de 2000 ft
Probabilitat 30% :
Temporalment
l' 12 a les 18 UTC al 12 a les 24 UTC
Visibilitat: 5000 m
Escasses núvols a una alçada de 1800 ft, Cumulonimbus.
tempesta, pluja

TAF: NGFU 120439Z 1206/1306 11007KT 9999 SCT020 PROB30 TEMPO 1218/1224 5000 TSRA FEW018CB

Observacions i pronòstics meteorològics de més de 4000 aeroports (METAR i TAF).

Les estacions disponibles són els punts grocs i vermells al mapa.

Posi el ratolí al punt desitjat per veure el nom de l'estació.

Feu clic per veure les observacions i els pronòstics meteorològics.

Per canviar el mapa: feu clic els botons verds amb una creu de color negre per apropar; al botó verd amb un guió per allunyar la imatge; o en les fletxes verdes per a mapes adjacents.


METAR-TAF: